createdAt,value
2019-02-20T00:00:27.646Z,71.96
2019-02-20T00:00:58.976Z,72.67
2019-02-20T00:01:30.265Z,73.42
2019-02-20T00:02:01.571Z,72.99
2019-02-20T00:02:32.861Z,72.17
2019-02-20T00:03:04.173Z,71.95
2019-02-20T00:03:35.496Z,71.53
2019-02-20T00:04:06.702Z,70.95
2019-02-20T00:04:37.995Z,71.63
2019-02-20T00:05:09.360Z,70.62
2019-02-20T00:05:40.668Z,70.21
2019-02-20T00:06:11.950Z,69.65
2019-02-20T00:06:43.243Z,71.15
2019-02-20T00:07:14.539Z,70.37
2019-02-20T00:07:45.830Z,69.86
2019-02-20T00:08:17.103Z,71.26
2019-02-20T00:08:48.421Z,70.77
2019-02-20T00:09:19.719Z,70.15
2019-02-20T00:09:51.017Z,69.77
2019-02-20T00:10:22.362Z,69.78
2019-02-20T00:10:53.645Z,69.94
2019-02-20T00:11:24.944Z,70.42
2019-02-20T00:11:56.230Z,70.46
2019-02-20T00:12:27.524Z,70.44
2019-02-20T00:12:58.835Z,70.49
2019-02-20T00:13:30.134Z,70.76
2019-02-20T00:14:01.454Z,71.04
2019-02-20T00:14:32.756Z,71.15
2019-02-20T00:15:04.095Z,71.37
2019-02-20T00:15:35.409Z,71.78
2019-02-20T00:16:06.763Z,72.08
2019-02-20T00:16:38.034Z,72.44
2019-02-20T00:17:09.353Z,72.60
2019-02-20T00:17:40.650Z,72.60
2019-02-20T00:18:11.946Z,72.66
2019-02-20T00:18:43.247Z,72.72
2019-02-20T00:19:14.541Z,72.74
2019-02-20T00:19:45.879Z,72.76
2019-02-20T00:20:17.176Z,72.82
2019-02-20T00:20:48.471Z,72.87
2019-02-20T00:21:19.806Z,72.91
2019-02-20T00:21:51.119Z,73.07
2019-02-20T00:22:22.409Z,73.59
2019-02-20T00:22:53.702Z,73.37
2019-02-20T00:23:25.068Z,73.16
2019-02-20T00:23:56.359Z,73.12
2019-02-20T00:24:27.692Z,73.17
2019-02-20T00:24:58.982Z,73.11
2019-02-20T00:25:30.254Z,73.20
2019-02-20T00:26:01.551Z,73.28
2019-02-20T00:26:32.825Z,73.37
2019-02-20T00:27:04.133Z,73.47
2019-02-20T00:27:35.410Z,73.60
2019-02-20T00:28:06.707Z,73.70
2019-02-20T00:28:38.044Z,73.76
2019-02-20T00:29:09.362Z,73.78
2019-02-20T00:29:40.739Z,73.89
2019-02-20T00:30:12.037Z,73.96
2019-02-20T00:30:43.331Z,74.06
2019-02-20T00:31:14.626Z,74.22
2019-02-20T00:31:45.991Z,74.41
2019-02-20T00:32:17.276Z,74.41
2019-02-20T00:32:48.629Z,74.41
2019-02-20T00:33:19.960Z,74.46
2019-02-20T00:33:51.257Z,74.43
2019-02-20T00:34:22.579Z,74.45
2019-02-20T00:34:53.858Z,74.37
2019-02-20T00:35:25.146Z,74.25
2019-02-20T00:35:56.431Z,74.16
2019-02-20T00:36:27.748Z,74.15
2019-02-20T00:36:59.049Z,74.19
2019-02-20T00:37:30.350Z,74.24
2019-02-20T00:38:01.708Z,74.17
2019-02-20T00:38:33.010Z,74.20
2019-02-20T00:39:04.281Z,74.33
2019-02-20T00:39:35.572Z,74.46
2019-02-20T00:40:06.910Z,74.66
2019-02-20T00:40:38.260Z,74.65
2019-02-20T00:41:09.570Z,74.64
2019-02-20T00:41:40.875Z,74.64
2019-02-20T00:42:12.158Z,74.70
2019-02-20T00:42:43.509Z,74.74
2019-02-20T00:43:14.857Z,74.75
2019-02-20T00:43:46.153Z,74.71
2019-02-20T00:44:17.445Z,74.68
2019-02-20T00:44:48.730Z,74.78
2019-02-20T00:45:20.081Z,74.96
2019-02-20T00:45:51.365Z,74.99
2019-02-20T00:46:22.681Z,74.97
2019-02-20T00:46:53.954Z,75.19
2019-02-20T00:47:25.233Z,75.46
2019-02-20T00:47:56.570Z,75.44
2019-02-20T00:48:27.889Z,75.41
2019-02-20T00:48:59.233Z,75.50
2019-02-20T00:49:30.559Z,75.42
2019-02-20T00:50:01.912Z,75.58
2019-02-20T00:50:33.263Z,75.50
2019-02-20T00:51:04.568Z,75.35
2019-02-20T00:51:35.872Z,75.44
2019-02-20T00:52:07.185Z,75.57
2019-02-20T00:52:38.568Z,76.24
2019-02-20T00:53:09.838Z,75.95
2019-02-20T00:53:41.150Z,75.45
2019-02-20T00:54:12.443Z,75.52
2019-02-20T00:54:43.755Z,75.65
2019-02-20T00:55:15.052Z,75.33
2019-02-20T00:55:46.406Z,75.12
2019-02-20T00:56:17.704Z,75.09
2019-02-20T00:56:49.004Z,75.15
2019-02-20T00:57:20.314Z,75.23
2019-02-20T00:57:51.616Z,75.42
2019-02-20T00:58:22.915Z,75.55
2019-02-20T00:58:54.202Z,75.29
2019-02-20T00:59:25.538Z,75.18
2019-02-20T00:59:56.840Z,74.93
2019-02-20T01:00:28.172Z,75.25
2019-02-20T01:00:59.482Z,75.98
2019-02-20T01:01:30.798Z,75.73
2019-02-20T01:02:02.108Z,75.39
2019-02-20T01:02:33.410Z,75.04
2019-02-20T01:03:04.710Z,74.67
2019-02-20T01:03:36.075Z,74.49
2019-02-20T01:04:07.387Z,74.48
2019-02-20T01:04:38.683Z,74.47
2019-02-20T01:05:09.995Z,74.87
2019-02-20T01:05:41.303Z,74.82
2019-02-20T01:06:12.594Z,74.83
2019-02-20T01:06:45.335Z,75.03
2019-02-20T01:07:16.719Z,75.12
2019-02-20T01:07:48.023Z,75.10
2019-02-20T01:08:19.311Z,75.20
2019-02-20T01:08:50.614Z,75.20
2019-02-20T01:09:21.911Z,75.30
2019-02-20T01:09:53.258Z,75.46
2019-02-20T01:10:24.592Z,75.36
2019-02-20T01:10:55.948Z,75.34
2019-02-20T01:11:27.268Z,75.43
2019-02-20T01:11:58.615Z,75.51
2019-02-20T01:12:30.180Z,75.62
2019-02-20T01:13:01.488Z,75.70
2019-02-20T01:13:32.880Z,75.77
2019-02-20T01:14:04.263Z,75.89
2019-02-20T01:14:35.614Z,75.91
2019-02-20T01:15:06.925Z,76.07
2019-02-20T01:15:39.296Z,76.07
2019-02-20T01:16:10.657Z,76.02
2019-02-20T01:16:41.944Z,76.02
2019-02-20T01:17:13.223Z,76.13
2019-02-20T01:17:44.518Z,76.21
2019-02-20T01:18:15.834Z,76.35
2019-02-20T01:18:47.109Z,76.40
2019-02-20T01:19:18.450Z,76.43
2019-02-20T01:19:49.728Z,76.53
2019-02-20T01:20:21.039Z,76.60
2019-02-20T01:20:52.408Z,76.71
2019-02-20T01:21:23.695Z,76.86
2019-02-20T01:21:54.984Z,76.95
2019-02-20T01:22:26.277Z,76.98
2019-02-20T01:22:59.821Z,77.12
2019-02-20T01:23:30.594Z,77.23
2019-02-20T01:24:01.901Z,77.37
2019-02-20T01:24:34.165Z,77.40
2019-02-20T01:25:05.376Z,77.37
2019-02-20T01:25:36.580Z,77.26
2019-02-20T01:26:07.850Z,77.24
2019-02-20T01:26:39.073Z,77.25
2019-02-20T01:27:10.272Z,77.22
2019-02-20T01:27:41.506Z,77.30
2019-02-20T01:28:12.739Z,77.34
2019-02-20T01:28:43.955Z,77.38
2019-02-20T01:29:15.194Z,77.39
2019-02-20T01:29:46.450Z,77.54
2019-02-20T01:30:17.665Z,77.54
2019-02-20T01:30:48.882Z,77.66
2019-02-20T01:31:20.130Z,77.74
2019-02-20T01:31:51.328Z,77.86
2019-02-20T01:32:22.538Z,77.96
2019-02-20T01:32:53.807Z,78.01
2019-02-20T01:33:25.035Z,78.04
2019-02-20T01:33:57.217Z,78.05
2019-02-20T01:34:28.433Z,78.06
2019-02-20T01:34:59.652Z,78.07
2019-02-20T01:35:30.861Z,78.14
2019-02-20T01:36:02.095Z,78.19
2019-02-20T01:36:33.313Z,78.32
2019-02-20T01:37:04.505Z,78.38
2019-02-20T01:37:35.779Z,78.42
2019-02-20T01:38:06.990Z,78.43
2019-02-20T01:38:38.192Z,78.43
2019-02-20T01:39:09.419Z,78.43
2019-02-20T01:39:40.700Z,78.56
2019-02-20T01:40:11.940Z,78.52
2019-02-20T01:40:43.158Z,78.40
2019-02-20T01:41:14.560Z,78.28
2019-02-20T01:41:45.732Z,78.20
2019-02-20T01:42:16.942Z,78.16
2019-02-20T01:42:48.164Z,78.10
2019-02-20T01:43:19.369Z,78.07
2019-02-20T01:43:50.751Z,78.13
2019-02-20T01:44:21.957Z,78.08
2019-02-20T01:44:53.218Z,78.01
2019-02-20T01:45:24.416Z,77.98
2019-02-20T01:45:55.655Z,78.00
2019-02-20T01:46:26.903Z,78.07
2019-02-20T01:46:58.077Z,78.09
2019-02-20T01:47:29.284Z,78.03
2019-02-20T01:48:00.505Z,78.04
2019-02-20T01:48:31.722Z,77.98
2019-02-20T01:49:02.923Z,78.01
2019-02-20T01:49:34.133Z,77.92
2019-02-20T01:50:05.379Z,77.84
2019-02-20T01:50:36.587Z,77.74
2019-02-20T01:51:07.780Z,77.65
2019-02-20T01:51:38.995Z,77.58
2019-02-20T01:52:10.206Z,77.64
2019-02-20T01:52:41.436Z,77.66
2019-02-20T01:53:12.644Z,77.54
2019-02-20T01:53:43.906Z,77.47
2019-02-20T01:54:15.166Z,77.33
2019-02-20T01:54:46.377Z,77.21
2019-02-20T01:55:17.615Z,77.13
2019-02-20T01:55:48.833Z,77.04
2019-02-20T01:56:20.033Z,76.97
2019-02-20T01:56:51.246Z,76.95
2019-02-20T01:57:22.464Z,76.91
2019-02-20T01:57:53.711Z,76.87
2019-02-20T01:58:25.015Z,76.80
2019-02-20T01:58:56.305Z,76.77
2019-02-20T01:59:27.515Z,76.80
2019-02-20T01:59:58.726Z,76.84
2019-02-20T02:00:29.938Z,76.86
2019-02-20T02:01:01.150Z,76.88
2019-02-20T02:01:32.362Z,76.80
2019-02-20T02:02:03.656Z,76.75
2019-02-20T02:02:34.953Z,76.72
2019-02-20T02:03:06.201Z,76.72
2019-02-20T02:03:39.086Z,76.68
2019-02-20T02:04:10.419Z,76.70
2019-02-20T02:04:41.680Z,76.72
2019-02-20T02:05:15.809Z,76.71
2019-02-20T02:05:45.919Z,76.75
2019-02-20T02:06:17.124Z,76.96
2019-02-20T02:06:48.337Z,77.27
2019-02-20T02:07:19.578Z,77.17
2019-02-20T02:07:50.787Z,77.16
2019-02-20T02:08:22.005Z,77.17
2019-02-20T02:08:53.213Z,77.38
2019-02-20T02:09:24.428Z,77.57
2019-02-20T02:09:55.739Z,77.53
2019-02-20T02:10:26.970Z,77.48
2019-02-20T02:10:58.188Z,77.31
2019-02-20T02:11:29.405Z,77.19
2019-02-20T02:12:00.637Z,77.11
2019-02-20T02:12:31.852Z,77.08
2019-02-20T02:13:03.069Z,77.05
2019-02-20T02:13:34.320Z,77.03
2019-02-20T02:14:05.575Z,77.06
2019-02-20T02:14:36.771Z,77.06
2019-02-20T02:15:08.035Z,77.06
2019-02-20T02:15:39.243Z,77.12
2019-02-20T02:16:10.470Z,77.18
2019-02-20T02:16:41.694Z,77.19
2019-02-20T02:17:12.947Z,77.21
2019-02-20T02:17:44.192Z,77.24
2019-02-20T02:18:15.408Z,77.25
2019-02-20T02:18:46.636Z,77.27
2019-02-20T02:19:17.834Z,77.35
2019-02-20T02:19:49.046Z,77.37
2019-02-20T02:20:20.308Z,77.45
2019-02-20T02:20:51.579Z,77.55
2019-02-20T02:21:22.784Z,77.71
2019-02-20T02:21:54.007Z,77.80
2019-02-20T02:22:25.230Z,77.87
2019-02-20T02:22:56.449Z,77.95
2019-02-20T02:23:27.651Z,77.92
2019-02-20T02:23:58.893Z,77.97
2019-02-20T02:24:30.134Z,77.99
2019-02-20T02:25:01.344Z,78.02
2019-02-20T02:25:32.548Z,77.98
2019-02-20T02:26:10.622Z,78.02
2019-02-20T02:26:36.735Z,77.90
2019-02-20T02:27:07.976Z,77.83
2019-02-20T02:27:39.222Z,77.73
2019-02-20T02:28:10.451Z,77.64
2019-02-20T02:28:41.666Z,77.63
2019-02-20T02:29:12.859Z,77.59
2019-02-20T02:29:44.082Z,77.58
2019-02-20T02:30:15.301Z,77.46
2019-02-20T02:30:46.560Z,77.41
2019-02-20T02:31:17.802Z,77.37
2019-02-20T02:31:49.009Z,77.30
2019-02-20T02:32:20.223Z,77.23
2019-02-20T02:32:51.487Z,77.14
2019-02-20T02:33:22.690Z,77.18
2019-02-20T02:33:53.930Z,77.19
2019-02-20T02:34:25.188Z,77.18
2019-02-20T02:34:56.380Z,77.14
2019-02-20T02:35:27.602Z,77.12
2019-02-20T02:35:58.894Z,77.12
2019-02-20T02:36:30.093Z,77.26
2019-02-20T02:37:01.304Z,77.38
2019-02-20T02:37:32.508Z,77.35
2019-02-20T02:38:03.711Z,77.37
2019-02-20T02:38:34.929Z,77.36
2019-02-20T02:39:06.152Z,77.42
2019-02-20T02:39:37.364Z,77.47
2019-02-20T02:40:08.653Z,77.46
2019-02-20T02:40:39.865Z,77.43
2019-02-20T02:41:11.121Z,77.45
2019-02-20T02:41:44.699Z,77.49
2019-02-20T02:42:15.295Z,77.59
2019-02-20T02:42:46.504Z,77.77
2019-02-20T02:43:17.715Z,77.79
2019-02-20T02:43:48.964Z,77.75
2019-02-20T02:44:20.201Z,77.72
2019-02-20T02:44:51.467Z,77.81
2019-02-20T02:45:22.742Z,77.80
2019-02-20T02:45:53.947Z,77.84
2019-02-20T02:46:25.150Z,77.86
2019-02-20T02:46:56.369Z,77.83
2019-02-20T02:47:27.599Z,77.87
2019-02-20T02:47:58.834Z,77.90
2019-02-20T02:48:30.026Z,77.89
2019-02-20T02:49:01.261Z,77.90
2019-02-20T02:49:32.464Z,77.83
2019-02-20T02:50:03.685Z,77.79
2019-02-20T02:50:34.882Z,77.84
2019-02-20T02:51:06.158Z,77.86
2019-02-20T02:51:37.375Z,77.86
2019-02-20T02:52:08.583Z,77.93
2019-02-20T02:52:39.795Z,78.00
2019-02-20T02:53:11.065Z,78.08
2019-02-20T02:53:42.280Z,78.19
2019-02-20T02:54:13.479Z,78.32
2019-02-20T02:54:44.698Z,78.30
2019-02-20T02:55:15.985Z,78.34
2019-02-20T02:55:47.202Z,78.30
2019-02-20T02:56:18.411Z,78.27
2019-02-20T02:56:49.624Z,78.18
2019-02-20T02:57:20.889Z,78.18
2019-02-20T02:57:52.103Z,78.19
2019-02-20T02:58:23.363Z,78.14
2019-02-20T02:58:54.573Z,78.12
2019-02-20T02:59:25.787Z,78.01
2019-02-20T02:59:57.002Z,77.97
2019-02-20T03:00:28.207Z,77.94
2019-02-20T03:00:59.461Z,78.06
2019-02-20T03:01:30.684Z,78.16
2019-02-20T03:02:01.897Z,78.19
2019-02-20T03:02:33.094Z,78.16
2019-02-20T03:03:04.314Z,78.08
2019-02-20T03:03:35.584Z,78.01
2019-02-20T03:04:06.817Z,78.01
2019-02-20T03:04:38.053Z,78.01
2019-02-20T03:05:09.243Z,78.02
2019-02-20T03:05:40.458Z,78.06
2019-02-20T03:06:11.661Z,78.07
2019-02-20T03:06:42.879Z,78.14
2019-02-20T03:07:14.086Z,78.13
2019-02-20T03:07:45.326Z,78.19
2019-02-20T03:08:16.540Z,78.22
2019-02-20T03:08:47.744Z,78.18
2019-02-20T03:09:18.966Z,78.10
2019-02-20T03:09:50.246Z,78.05
2019-02-20T03:10:21.438Z,77.97
2019-02-20T03:10:52.648Z,77.98
2019-02-20T03:11:23.921Z,77.88
2019-02-20T03:11:55.173Z,77.83
2019-02-20T03:12:26.405Z,77.82
2019-02-20T03:12:57.663Z,77.72
2019-02-20T03:13:28.868Z,77.65
2019-02-20T03:14:00.125Z,77.66
2019-02-20T03:14:31.839Z,77.57
2019-02-20T03:15:03.067Z,77.48
2019-02-20T03:15:34.316Z,77.38
2019-02-20T03:16:05.521Z,77.34
2019-02-20T03:16:36.735Z,77.26
2019-02-20T03:17:07.958Z,77.15
2019-02-20T03:17:39.154Z,76.99
2019-02-20T03:18:10.429Z,76.85
2019-02-20T03:18:41.628Z,76.71
2019-02-20T03:19:12.852Z,76.67
2019-02-20T03:19:44.076Z,76.68
2019-02-20T03:20:15.386Z,76.68
2019-02-20T03:20:46.626Z,76.62
2019-02-20T03:21:17.971Z,76.82
2019-02-20T03:21:49.274Z,76.96
2019-02-20T03:22:20.483Z,77.08
2019-02-20T03:22:51.781Z,77.09
2019-02-20T03:23:23.031Z,77.22
2019-02-20T03:23:54.232Z,77.20
2019-02-20T03:24:25.496Z,77.16
2019-02-20T03:24:56.686Z,77.12
2019-02-20T03:25:27.900Z,77.07
2019-02-20T03:25:59.180Z,76.92
2019-02-20T03:26:30.518Z,76.85
2019-02-20T03:27:01.778Z,76.73
2019-02-20T03:27:33.012Z,76.67
2019-02-20T03:28:04.233Z,76.59
2019-02-20T03:28:35.435Z,76.53
2019-02-20T03:29:06.681Z,76.54
2019-02-20T03:29:37.897Z,76.54
2019-02-20T03:30:09.118Z,76.49
2019-02-20T03:30:40.422Z,76.48
2019-02-20T03:31:11.631Z,76.52
2019-02-20T03:31:42.828Z,76.67
2019-02-20T03:32:14.148Z,76.67
2019-02-20T03:32:45.450Z,76.67
2019-02-20T03:33:16.649Z,76.64
2019-02-20T03:33:47.866Z,76.61
2019-02-20T03:34:19.108Z,76.68
2019-02-20T03:34:50.297Z,76.68
2019-02-20T03:35:21.519Z,76.69
2019-02-20T03:35:52.709Z,76.66
2019-02-20T03:36:23.918Z,76.67
2019-02-20T03:36:55.130Z,76.66
2019-02-20T03:37:26.349Z,76.75
2019-02-20T03:37:57.615Z,76.93
2019-02-20T03:38:30.527Z,77.03
2019-02-20T03:39:01.774Z,77.08
2019-02-20T03:39:32.971Z,77.12
2019-02-20T03:40:04.257Z,77.15
2019-02-20T03:40:35.498Z,77.17
2019-02-20T03:41:06.773Z,77.25
2019-02-20T03:41:38.032Z,77.21
2019-02-20T03:42:09.251Z,77.15
2019-02-20T03:42:40.460Z,77.11
2019-02-20T03:43:11.664Z,77.11
2019-02-20T03:43:42.916Z,77.07
2019-02-20T03:44:14.167Z,77.04
2019-02-20T03:44:45.381Z,77.04
2019-02-20T03:45:16.591Z,76.99
2019-02-20T03:45:47.834Z,77.04
2019-02-20T03:46:19.050Z,77.03
2019-02-20T03:46:50.287Z,76.92
2019-02-20T03:47:21.496Z,76.87
2019-02-20T03:47:52.700Z,76.91
2019-02-20T03:48:23.897Z,76.91
2019-02-20T03:48:55.105Z,76.87
2019-02-20T03:49:26.356Z,76.85
2019-02-20T03:49:57.557Z,76.76
2019-02-20T03:50:28.810Z,76.74
2019-02-20T03:51:00.175Z,76.75
2019-02-20T03:51:31.392Z,76.74
2019-02-20T03:52:02.607Z,76.86
2019-02-20T03:52:36.598Z,76.97
2019-02-20T03:53:07.823Z,76.94
2019-02-20T03:53:39.035Z,76.89
2019-02-20T03:54:10.295Z,76.92
2019-02-20T03:54:41.524Z,76.98
2019-02-20T03:55:12.738Z,76.98
2019-02-20T03:55:43.946Z,76.98
2019-02-20T03:56:15.164Z,76.96
2019-02-20T03:56:46.368Z,76.94
2019-02-20T03:57:17.649Z,76.91
2019-02-20T03:57:48.860Z,76.91
2019-02-20T03:58:20.073Z,76.88
2019-02-20T03:58:51.276Z,76.72
2019-02-20T03:59:22.529Z,76.65
2019-02-20T03:59:53.781Z,76.65
2019-02-20T04:00:24.993Z,76.63
2019-02-20T04:00:56.220Z,76.68
2019-02-20T04:01:27.435Z,76.69
2019-02-20T04:01:58.626Z,76.69
2019-02-20T04:02:29.931Z,76.70
2019-02-20T04:03:01.153Z,76.69
2019-02-20T04:03:32.361Z,76.66
2019-02-20T04:04:03.590Z,76.65
2019-02-20T04:04:34.833Z,76.67
2019-02-20T04:05:06.077Z,76.72
2019-02-20T04:05:37.310Z,76.67
2019-02-20T04:06:08.526Z,76.64
2019-02-20T04:06:39.813Z,76.65
2019-02-20T04:07:11.018Z,76.70
2019-02-20T04:07:42.237Z,76.80
2019-02-20T04:08:13.435Z,76.83
2019-02-20T04:08:44.683Z,76.87
2019-02-20T04:09:15.866Z,76.84
2019-02-20T04:09:47.079Z,76.83
2019-02-20T04:10:18.294Z,76.86
2019-02-20T04:10:49.494Z,76.88
2019-02-20T04:11:20.769Z,76.88
2019-02-20T04:11:52.053Z,76.77
2019-02-20T04:12:23.268Z,76.69
2019-02-20T04:12:54.494Z,76.71
2019-02-20T04:13:25.695Z,76.77
2019-02-20T04:13:57.222Z,76.87
2019-02-20T04:14:28.434Z,76.92
2019-02-20T04:15:00.654Z,76.96
2019-02-20T04:15:31.871Z,77.02
2019-02-20T04:16:03.082Z,76.95
2019-02-20T04:16:34.307Z,76.89
2019-02-20T04:17:05.544Z,76.86
2019-02-20T04:17:36.756Z,76.86
2019-02-20T04:18:07.976Z,76.86
2019-02-20T04:18:39.193Z,76.90
2019-02-20T04:19:10.399Z,76.78
2019-02-20T04:19:41.793Z,76.79
2019-02-20T04:20:13.000Z,76.82
2019-02-20T04:20:44.288Z,76.81
2019-02-20T04:21:15.501Z,76.83
2019-02-20T04:21:46.716Z,76.77
2019-02-20T04:22:17.929Z,76.61
2019-02-20T04:22:49.141Z,76.38
2019-02-20T04:23:20.350Z,76.23
2019-02-20T04:24:01.610Z,76.15
2019-02-20T04:24:24.489Z,76.11
2019-02-20T04:24:55.731Z,76.15
2019-02-20T04:25:26.961Z,76.17
2019-02-20T04:25:58.193Z,76.21
2019-02-20T04:26:29.394Z,76.29
2019-02-20T04:27:00.603Z,76.32
2019-02-20T04:27:31.813Z,76.29
2019-02-20T04:28:03.019Z,76.16
2019-02-20T04:28:34.258Z,76.02
2019-02-20T04:29:05.469Z,76.07
2019-02-20T04:29:36.670Z,76.17
2019-02-20T04:30:07.888Z,76.30
2019-02-20T04:30:39.106Z,76.42
2019-02-20T04:31:10.317Z,76.37
2019-02-20T04:31:41.565Z,76.36
2019-02-20T04:32:12.771Z,76.33
2019-02-20T04:32:43.970Z,76.30
2019-02-20T04:33:15.249Z,76.34
2019-02-20T04:33:46.480Z,76.41
2019-02-20T04:34:17.699Z,76.38
2019-02-20T04:34:48.893Z,76.45
2019-02-20T04:35:20.095Z,76.46
2019-02-20T04:35:51.307Z,76.38
2019-02-20T04:36:22.520Z,76.37
2019-02-20T04:36:53.724Z,76.46
2019-02-20T04:37:24.933Z,76.59
2019-02-20T04:37:56.129Z,76.79
2019-02-20T04:38:27.409Z,76.81
2019-02-20T04:38:59.810Z,76.69
2019-02-20T04:39:31.037Z,76.62
2019-02-20T04:40:02.228Z,76.58
2019-02-20T04:40:33.465Z,76.56
2019-02-20T04:41:04.670Z,76.53
2019-02-20T04:41:35.884Z,76.56
2019-02-20T04:42:07.135Z,76.64
2019-02-20T04:42:38.420Z,76.73
2019-02-20T04:43:09.677Z,76.85
2019-02-20T04:43:40.969Z,76.80
2019-02-20T04:44:12.172Z,76.88
2019-02-20T04:44:43.386Z,76.99
2019-02-20T04:45:14.593Z,77.15
2019-02-20T04:45:45.854Z,77.21
2019-02-20T04:46:17.116Z,77.22
2019-02-20T04:46:48.328Z,77.16
2019-02-20T04:47:19.537Z,77.19
2019-02-20T04:47:50.755Z,77.18
2019-02-20T04:48:21.979Z,77.19
2019-02-20T04:48:53.280Z,77.25
2019-02-20T04:49:24.488Z,77.39
2019-02-20T04:49:55.678Z,77.49
2019-02-20T04:50:26.915Z,77.55
2019-02-20T04:50:58.154Z,77.55
2019-02-20T04:51:29.385Z,77.64
2019-02-20T04:52:00.597Z,77.78
2019-02-20T04:52:31.816Z,77.87
2019-02-20T04:53:03.027Z,77.86
2019-02-20T04:53:34.235Z,78.01
2019-02-20T04:54:13.013Z,78.20
2019-02-20T04:54:38.448Z,78.20
2019-02-20T04:55:09.682Z,78.25
2019-02-20T04:55:40.920Z,78.35
2019-02-20T04:56:12.131Z,78.43
2019-02-20T04:56:43.374Z,78.57
2019-02-20T04:57:14.636Z,78.64
2019-02-20T04:57:45.830Z,78.62
2019-02-20T04:58:17.034Z,78.57
2019-02-20T04:58:48.238Z,78.62
2019-02-20T04:59:19.494Z,78.82
2019-02-20T04:59:50.795Z,78.86
2019-02-20T05:00:21.994Z,78.76
2019-02-20T05:00:53.233Z,78.68
2019-02-20T05:01:24.482Z,78.54
2019-02-20T05:01:55.695Z,78.42
2019-02-20T05:02:26.928Z,78.35
2019-02-20T05:02:58.166Z,78.32
2019-02-20T05:03:29.382Z,78.36
2019-02-20T05:04:00.587Z,78.32
2019-02-20T05:04:31.798Z,78.37
2019-02-20T05:05:03.033Z,78.52
2019-02-20T05:05:34.222Z,78.55
2019-02-20T05:06:05.474Z,78.56
2019-02-20T05:06:36.701Z,78.65
2019-02-20T05:07:07.948Z,78.71
2019-02-20T05:07:39.176Z,78.73
2019-02-20T05:08:10.445Z,78.79
2019-02-20T05:08:42.088Z,78.90
2019-02-20T05:09:13.299Z,78.95
2019-02-20T05:09:44.517Z,78.95
2019-02-20T05:10:15.750Z,79.05
2019-02-20T05:10:47.006Z,79.16
2019-02-20T05:11:18.271Z,79.26
2019-02-20T05:11:49.480Z,79.37
2019-02-20T05:12:20.706Z,79.44
2019-02-20T05:12:51.942Z,79.41
2019-02-20T05:13:23.140Z,79.49
2019-02-20T05:13:54.426Z,79.51
2019-02-20T05:14:25.634Z,79.48
2019-02-20T05:14:56.831Z,79.45
2019-02-20T05:15:28.040Z,79.55
2019-02-20T05:15:59.263Z,79.60
2019-02-20T05:16:33.230Z,79.61
2019-02-20T05:17:04.438Z,79.65
2019-02-20T05:17:35.657Z,79.64
2019-02-20T05:18:06.914Z,79.71
2019-02-20T05:18:38.135Z,79.77
2019-02-20T05:19:09.387Z,79.78
2019-02-20T05:19:40.611Z,79.78
2019-02-20T05:20:11.857Z,79.83
2019-02-20T05:20:43.059Z,79.92
2019-02-20T05:21:14.265Z,79.91
2019-02-20T05:21:45.476Z,79.90
2019-02-20T05:22:16.689Z,79.85
2019-02-20T05:22:47.975Z,79.74
2019-02-20T05:23:19.186Z,79.59
2019-02-20T05:23:50.386Z,79.53
2019-02-20T05:24:24.770Z,79.50
2019-02-20T05:24:54.542Z,79.35
2019-02-20T05:25:25.753Z,79.20
2019-02-20T05:25:56.963Z,79.12
2019-02-20T05:26:28.172Z,79.07
2019-02-20T05:26:59.440Z,78.88
2019-02-20T05:27:30.640Z,78.65
2019-02-20T05:28:01.849Z,78.41
2019-02-20T05:28:33.049Z,78.19
2019-02-20T05:29:04.265Z,77.85
2019-02-20T05:29:35.468Z,77.62
2019-02-20T05:30:06.693Z,77.18
2019-02-20T05:30:37.891Z,76.92
2019-02-20T05:31:09.109Z,76.59
2019-02-20T05:31:40.312Z,76.26
2019-02-20T05:32:11.581Z,76.09
2019-02-20T05:32:42.784Z,75.94
2019-02-20T05:33:13.994Z,75.71
2019-02-20T05:33:45.208Z,75.38
2019-02-20T05:34:16.437Z,75.17
2019-02-20T05:34:47.635Z,75.07
2019-02-20T05:35:18.855Z,74.91
2019-02-20T05:35:50.054Z,74.68
2019-02-20T05:36:21.288Z,74.43
2019-02-20T05:36:52.511Z,74.16
2019-02-20T05:37:23.771Z,74.06
2019-02-20T05:37:54.986Z,73.77
2019-02-20T05:38:26.192Z,73.52
2019-02-20T05:38:57.405Z,73.45
2019-02-20T05:39:28.611Z,73.33
2019-02-20T05:39:59.823Z,73.14
2019-02-20T05:40:31.035Z,72.84
2019-02-20T05:41:02.303Z,72.66
2019-02-20T05:41:33.600Z,72.39
2019-02-20T05:42:04.857Z,72.06
2019-02-20T05:42:36.068Z,71.80
2019-02-20T05:43:07.316Z,71.48
2019-02-20T05:43:38.566Z,71.13
2019-02-20T05:44:09.773Z,70.89
2019-02-20T05:44:40.985Z,70.89
2019-02-20T05:45:12.198Z,70.86
2019-02-20T05:45:43.455Z,70.91
2019-02-20T05:46:14.685Z,70.73
2019-02-20T05:46:45.882Z,70.71
2019-02-20T05:47:17.188Z,70.53
2019-02-20T05:47:48.438Z,70.56
2019-02-20T05:48:19.670Z,70.59
2019-02-20T05:48:50.892Z,70.61
2019-02-20T05:49:22.125Z,70.59
2019-02-20T05:49:53.393Z,70.66
2019-02-20T05:50:24.655Z,70.75
2019-02-20T05:50:55.887Z,70.72
2019-02-20T05:51:27.093Z,70.65
2019-02-20T05:51:58.356Z,70.72
2019-02-20T05:52:29.582Z,70.89
2019-02-20T05:53:00.778Z,71.04
2019-02-20T05:53:32.038Z,71.16
2019-02-20T05:54:03.316Z,71.20
2019-02-20T05:54:35.290Z,71.27
2019-02-20T05:55:06.602Z,71.23
2019-02-20T05:55:37.817Z,71.27
2019-02-20T05:56:09.034Z,71.33
2019-02-20T05:56:40.296Z,71.41
2019-02-20T05:57:11.503Z,71.41
2019-02-20T05:57:42.721Z,71.36
2019-02-20T05:58:13.948Z,71.27
2019-02-20T05:58:45.189Z,71.30
2019-02-20T05:59:16.398Z,71.24
2019-02-20T05:59:49.620Z,71.30
2019-02-20T06:00:20.970Z,71.12
2019-02-20T06:00:52.187Z,70.98
2019-02-20T06:01:23.391Z,70.78
2019-02-20T06:01:54.600Z,70.70
2019-02-20T06:02:25.839Z,70.64
2019-02-20T06:02:57.193Z,70.57
2019-02-20T06:03:28.408Z,70.51
2019-02-20T06:03:59.619Z,70.42
2019-02-20T06:04:30.863Z,70.23
2019-02-20T06:05:02.116Z,70.21
2019-02-20T06:05:33.358Z,70.32
2019-02-20T06:06:04.578Z,70.25
2019-02-20T06:06:35.793Z,70.08
2019-02-20T06:07:07.058Z,69.92
2019-02-20T06:07:38.268Z,69.92
2019-02-20T06:08:09.477Z,69.80
2019-02-20T06:08:40.690Z,69.83
2019-02-20T06:09:11.911Z,69.75
2019-02-20T06:09:43.117Z,69.58
2019-02-20T06:10:14.368Z,69.38
2019-02-20T06:10:45.578Z,69.18
2019-02-20T06:11:16.788Z,69.07
2019-02-20T06:11:48.012Z,68.99
2019-02-20T06:12:19.250Z,69.01
2019-02-20T06:12:50.469Z,69.04
2019-02-20T06:13:21.838Z,69.06
2019-02-20T06:13:53.080Z,68.83
2019-02-20T06:14:24.275Z,68.63
2019-02-20T06:14:55.541Z,68.65
2019-02-20T06:15:26.762Z,68.82
2019-02-20T06:15:57.986Z,68.78
2019-02-20T06:16:29.207Z,68.86
2019-02-20T06:17:00.418Z,68.89
2019-02-20T06:17:31.627Z,69.18
2019-02-20T06:18:02.833Z,69.57
2019-02-20T06:18:34.109Z,69.95
2019-02-20T06:19:05.347Z,69.89
2019-02-20T06:19:36.559Z,69.57
2019-02-20T06:20:07.780Z,69.36
2019-02-20T06:20:39.010Z,69.41
2019-02-20T06:21:10.213Z,69.39
2019-02-20T06:21:41.431Z,68.74
2019-02-20T06:22:12.659Z,68.63
2019-02-20T06:22:43.886Z,68.87
2019-02-20T06:23:15.145Z,69.04
2019-02-20T06:23:46.338Z,68.95
2019-02-20T06:24:17.553Z,69.03
2019-02-20T06:24:48.767Z,68.98
2019-02-20T06:25:20.101Z,68.92
2019-02-20T06:25:51.393Z,68.78
2019-02-20T06:26:22.607Z,68.52
2019-02-20T06:26:53.812Z,68.45
2019-02-20T06:27:25.025Z,68.39
2019-02-20T06:27:56.292Z,68.28
2019-02-20T06:28:27.559Z,68.06
2019-02-20T06:28:58.760Z,67.96
2019-02-20T06:29:29.976Z,68.03
2019-02-20T06:30:01.324Z,67.99
2019-02-20T06:30:32.499Z,68.03
2019-02-20T06:31:03.741Z,67.77
2019-02-20T06:31:34.955Z,67.22
2019-02-20T06:32:06.162Z,66.84
2019-02-20T06:32:37.438Z,66.86
2019-02-20T06:33:08.639Z,66.96
2019-02-20T06:33:39.858Z,67.01
2019-02-20T06:34:11.060Z,66.94
2019-02-20T06:34:44.357Z,66.96
2019-02-20T06:35:15.635Z,66.84
2019-02-20T06:35:46.844Z,66.65
2019-02-20T06:36:18.488Z,66.34
2019-02-20T06:36:49.745Z,66.31
2019-02-20T06:37:21.001Z,65.88
2019-02-20T06:37:52.226Z,65.91
2019-02-20T06:38:23.448Z,66.22
2019-02-20T06:38:54.664Z,66.18
2019-02-20T06:39:25.912Z,66.02
2019-02-20T06:39:57.124Z,65.56
2019-02-20T06:40:28.399Z,65.08
2019-02-20T06:40:59.627Z,65.06
2019-02-20T06:41:38.656Z,65.45
2019-02-20T06:42:04.082Z,65.88
2019-02-20T06:42:35.294Z,65.27
2019-02-20T06:43:06.538Z,64.98